sensor_id;sensor_type;location;lat;lon;timestamp;pressure;altitude;pressure_sealevel;temperature;humidity
41515;BME280;27247;48.020;16.720;2022-07-23T00:00:19;99707.63;;;23.79;74.17
41515;BME280;27247;48.020;16.720;2022-07-23T00:04:29;99713.09;;;23.79;74.08
41515;BME280;27247;48.020;16.720;2022-07-23T00:08:39;99710.88;;;23.71;74.36
41515;BME280;27247;48.020;16.720;2022-07-23T00:12:50;99711.44;;;23.78;73.63
41515;BME280;27247;48.020;16.720;2022-07-23T00:17:00;99704.63;;;23.75;74.02
41515;BME280;27247;48.020;16.720;2022-07-23T00:21:10;99708.44;;;23.74;74.18
41515;BME280;27247;48.020;16.720;2022-07-23T00:25:22;99706.47;;;23.65;72.70
41515;BME280;27247;48.020;16.720;2022-07-23T00:29:33;99704.59;;;23.70;72.84
41515;BME280;27247;48.020;16.720;2022-07-23T00:33:43;99702.97;;;23.74;73.33
41515;BME280;27247;48.020;16.720;2022-07-23T00:37:54;99709.28;;;23.80;72.64
41515;BME280;27247;48.020;16.720;2022-07-23T00:42:05;99693.66;;;23.70;73.64
41515;BME280;27247;48.020;16.720;2022-07-23T00:46:20;99706.50;;;23.70;75.25
41515;BME280;27247;48.020;16.720;2022-07-23T00:50:30;99695.25;;;23.61;76.23
41515;BME280;27247;48.020;16.720;2022-07-23T00:54:41;99698.47;;;23.53;76.86
41515;BME280;27247;48.020;16.720;2022-07-23T00:58:51;99710.16;;;23.48;75.11
41515;BME280;27247;48.020;16.720;2022-07-23T01:03:02;99702.78;;;23.44;75.02
41515;BME280;27247;48.020;16.720;2022-07-23T01:07:12;99699.72;;;23.35;75.90
41515;BME280;27247;48.020;16.720;2022-07-23T01:11:23;99699.81;;;23.50;75.02
41515;BME280;27247;48.020;16.720;2022-07-23T01:15:36;99706.66;;;23.53;74.75
41515;BME280;27247;48.020;16.720;2022-07-23T01:19:47;99695.00;;;23.25;74.01
41515;BME280;27247;48.020;16.720;2022-07-23T01:23:57;99700.69;;;23.19;76.96
41515;BME280;27247;48.020;16.720;2022-07-23T01:28:08;99705.72;;;23.00;78.07
41515;BME280;27247;48.020;16.720;2022-07-23T01:32:18;99701.56;;;22.92;78.22
41515;BME280;27247;48.020;16.720;2022-07-23T01:36:28;99704.34;;;22.98;77.48
41515;BME280;27247;48.020;16.720;2022-07-23T01:40:39;99702.03;;;22.84;76.39
41515;BME280;27247;48.020;16.720;2022-07-23T01:44:49;99702.41;;;22.93;76.29
41515;BME280;27247;48.020;16.720;2022-07-23T01:48:59;99695.31;;;22.92;77.07
41515;BME280;27247;48.020;16.720;2022-07-23T01:53:10;99700.22;;;22.95;77.48
41515;BME280;27247;48.020;16.720;2022-07-23T01:57:20;99712.19;;;22.89;77.97
41515;BME280;27247;48.020;16.720;2022-07-23T02:01:30;99739.16;;;22.90;77.57
41515;BME280;27247;48.020;16.720;2022-07-23T02:05:41;99758.16;;;22.85;77.49
41515;BME280;27247;48.020;16.720;2022-07-23T02:09:51;99762.97;;;22.78;78.01
41515;BME280;27247;48.020;16.720;2022-07-23T02:14:01;99765.22;;;22.81;77.53
41515;BME280;27247;48.020;16.720;2022-07-23T02:18:12;99741.00;;;22.85;78.05
41515;BME280;27247;48.020;16.720;2022-07-23T02:22:22;99737.00;;;22.92;77.87
41515;BME280;27247;48.020;16.720;2022-07-23T02:26:32;99716.84;;;22.93;77.99
41515;BME280;27247;48.020;16.720;2022-07-23T02:30:44;99719.66;;;23.04;77.29
41515;BME280;27247;48.020;16.720;2022-07-23T02:34:55;99717.03;;;22.87;77.95
41515;BME280;27247;48.020;16.720;2022-07-23T02:39:05;99703.81;;;23.01;77.32
41515;BME280;27247;48.020;16.720;2022-07-23T02:43:15;99704.72;;;23.11;76.82
41515;BME280;27247;48.020;16.720;2022-07-23T02:47:26;99693.09;;;23.26;76.61
41515;BME280;27247;48.020;16.720;2022-07-23T02:51:36;99680.31;;;23.32;76.61
41515;BME280;27247;48.020;16.720;2022-07-23T02:55:47;99684.19;;;23.41;76.54
41515;BME280;27247;48.020;16.720;2022-07-23T02:59:57;99677.72;;;23.52;76.22
41515;BME280;27247;48.020;16.720;2022-07-23T03:04:07;99675.66;;;23.27;76.98
41515;BME280;27247;48.020;16.720;2022-07-23T03:08:18;99677.44;;;23.06;77.55
41515;BME280;27247;48.020;16.720;2022-07-23T03:12:28;99670.78;;;22.92;78.40
41515;BME280;27247;48.020;16.720;2022-07-23T03:16:39;99657.75;;;22.72;79.28
41515;BME280;27247;48.020;16.720;2022-07-23T03:20:49;99650.25;;;22.57;79.58
41515;BME280;27247;48.020;16.720;2022-07-23T03:24:59;99650.47;;;22.51;80.04
41515;BME280;27247;48.020;16.720;2022-07-23T03:29:09;99650.47;;;22.51;79.93
41515;BME280;27247;48.020;16.720;2022-07-23T03:33:20;99657.72;;;22.40;80.12
41515;BME280;27247;48.020;16.720;2022-07-23T03:37:31;99694.97;;;22.61;79.28
41515;BME280;27247;48.020;16.720;2022-07-23T03:41:41;99704.00;;;22.67;79.99
41515;BME280;27247;48.020;16.720;2022-07-23T03:45:52;99677.69;;;22.78;78.94
41515;BME280;27247;48.020;16.720;2022-07-23T03:50:03;99697.94;;;22.60;79.20
41515;BME280;27247;48.020;16.720;2022-07-23T03:54:13;99687.63;;;22.62;79.17
41515;BME280;27247;48.020;16.720;2022-07-23T03:58:24;99704.00;;;22.67;79.05
41515;BME280;27247;48.020;16.720;2022-07-23T04:02:35;99708.16;;;22.75;78.61
41515;BME280;27247;48.020;16.720;2022-07-23T04:06:45;99702.66;;;22.91;78.35
41515;BME280;27247;48.020;16.720;2022-07-23T04:10:55;99714.03;;;22.88;78.01
41515;BME280;27247;48.020;16.720;2022-07-23T04:15:07;99713.22;;;22.88;78.18
41515;BME280;27247;48.020;16.720;2022-07-23T04:19:18;99728.41;;;23.06;77.70
41515;BME280;27247;48.020;16.720;2022-07-23T04:23:28;99723.19;;;23.04;78.46
41515;BME280;27247;48.020;16.720;2022-07-23T04:27:38;99726.78;;;23.10;78.25
41515;BME280;27247;48.020;16.720;2022-07-23T04:31:49;99720.72;;;23.35;76.67
41515;BME280;27247;48.020;16.720;2022-07-23T04:35:59;99725.34;;;23.34;76.41
41515;BME280;27247;48.020;16.720;2022-07-23T04:40:11;99727.31;;;23.44;76.86
41515;BME280;27247;48.020;16.720;2022-07-23T04:44:21;99740.44;;;23.10;80.00
41515;BME280;27247;48.020;16.720;2022-07-23T04:48:31;99754.53;;;23.34;79.53
41515;BME280;27247;48.020;16.720;2022-07-23T04:52:42;99743.97;;;23.47;78.89
41515;BME280;27247;48.020;16.720;2022-07-23T04:56:52;99739.25;;;23.70;78.92
41515;BME280;27247;48.020;16.720;2022-07-23T05:01:03;99727.97;;;24.03;75.34
41515;BME280;27247;48.020;16.720;2022-07-23T05:05:13;99730.84;;;24.34;72.45
41515;BME280;27247;48.020;16.720;2022-07-23T05:09:23;99730.66;;;24.61;71.83
41515;BME280;27247;48.020;16.720;2022-07-23T05:13:34;99732.03;;;24.89;70.57
41515;BME280;27247;48.020;16.720;2022-07-23T05:17:44;99720.63;;;25.07;69.78
41515;BME280;27247;48.020;16.720;2022-07-23T05:21:54;99720.63;;;25.22;69.08
41515;BME280;27247;48.020;16.720;2022-07-23T05:26:05;99719.25;;;25.40;68.49
41515;BME280;27247;48.020;16.720;2022-07-23T05:30:15;99727.16;;;25.52;67.98
41515;BME280;27247;48.020;16.720;2022-07-23T05:34:25;99723.31;;;25.68;67.60
41515;BME280;27247;48.020;16.720;2022-07-23T05:38:36;99726.56;;;25.85;66.45
41515;BME280;27247;48.020;16.720;2022-07-23T05:42:46;99734.72;;;25.95;65.93
41515;BME280;27247;48.020;16.720;2022-07-23T05:46:56;99728.97;;;26.07;66.50
41515;BME280;27247;48.020;16.720;2022-07-23T05:51:07;99737.69;;;26.19;66.42
41515;BME280;27247;48.020;16.720;2022-07-23T05:55:18;99750.28;;;26.20;66.43
41515;BME280;27247;48.020;16.720;2022-07-23T05:59:28;99745.53;;;26.41;65.05
41515;BME280;27247;48.020;16.720;2022-07-23T06:03:39;99756.66;;;26.65;64.74
41515;BME280;27247;48.020;16.720;2022-07-23T06:07:49;99763.94;;;26.85;63.65
41515;BME280;27247;48.020;16.720;2022-07-23T06:12:00;99760.00;;;27.01;64.68
41515;BME280;27247;48.020;16.720;2022-07-23T06:16:10;99743.22;;;27.13;62.94
41515;BME280;27247;48.020;16.720;2022-07-23T06:20:21;99745.16;;;27.41;62.22
41515;BME280;27247;48.020;16.720;2022-07-23T06:24:31;99751.13;;;27.48;62.05
41515;BME280;27247;48.020;16.720;2022-07-23T06:28:41;99753.22;;;27.61;62.13
41515;BME280;27247;48.020;16.720;2022-07-23T06:32:52;99749.97;;;27.83;62.50
41515;BME280;27247;48.020;16.720;2022-07-23T06:37:02;99747.34;;;27.97;61.47
41515;BME280;27247;48.020;16.720;2022-07-23T06:41:12;99748.09;;;28.03;61.05
41515;BME280;27247;48.020;16.720;2022-07-23T06:45:23;99753.00;;;28.06;61.26
41515;BME280;27247;48.020;16.720;2022-07-23T06:49:33;99741.84;;;28.21;61.25
41515;BME280;27247;48.020;16.720;2022-07-23T06:53:43;99738.94;;;28.36;61.64
41515;BME280;27247;48.020;16.720;2022-07-23T06:57:54;99739.41;;;28.62;61.37
41515;BME280;27247;48.020;16.720;2022-07-23T07:02:04;99739.25;;;28.91;60.32
41515;BME280;27247;48.020;16.720;2022-07-23T07:06:14;99743.59;;;29.30;59.91
41515;BME280;27247;48.020;16.720;2022-07-23T07:10:25;99746.13;;;29.45;59.58
41515;BME280;27247;48.020;16.720;2022-07-23T07:14:35;99739.94;;;29.34;59.52
41515;BME280;27247;48.020;16.720;2022-07-23T07:18:46;99740.53;;;29.50;60.49
41515;BME280;27247;48.020;16.720;2022-07-23T07:22:57;99735.47;;;29.84;59.31
41515;BME280;27247;48.020;16.720;2022-07-23T07:27:07;99724.56;;;30.07;58.74
41515;BME280;27247;48.020;16.720;2022-07-23T07:31:18;99727.50;;;30.38;58.66
41515;BME280;27247;48.020;16.720;2022-07-23T07:35:28;99723.19;;;30.59;57.66
41515;BME280;27247;48.020;16.720;2022-07-23T07:39:38;99734.22;;;30.95;57.10
41515;BME280;27247;48.020;16.720;2022-07-23T07:43:50;99722.38;;;31.17;54.35
41515;BME280;27247;48.020;16.720;2022-07-23T07:48:00;99718.13;;;31.33;51.99
41515;BME280;27247;48.020;16.720;2022-07-23T07:52:11;99735.00;;;31.63;51.01
41515;BME280;27247;48.020;16.720;2022-07-23T07:56:21;99734.16;;;31.85;50.99
41515;BME280;27247;48.020;16.720;2022-07-23T08:00:31;99738.03;;;32.23;49.12
41515;BME280;27247;48.020;16.720;2022-07-23T08:04:43;99741.53;;;32.37;47.77
41515;BME280;27247;48.020;16.720;2022-07-23T08:08:54;99732.94;;;32.74;47.00
41515;BME280;27247;48.020;16.720;2022-07-23T08:13:05;99737.69;;;32.99;47.78
41515;BME280;27247;48.020;16.720;2022-07-23T08:17:15;99734.59;;;33.00;45.39
41515;BME280;27247;48.020;16.720;2022-07-23T08:21:25;99736.88;;;32.98;45.77
41515;BME280;27247;48.020;16.720;2022-07-23T08:25:41;99737.16;;;33.23;46.30
41515;BME280;27247;48.020;16.720;2022-07-23T08:29:51;99739.97;;;33.40;45.24
41515;BME280;27247;48.020;16.720;2022-07-23T08:34:01;99736.28;;;33.66;44.92
41515;BME280;27247;48.020;16.720;2022-07-23T08:38:14;99736.69;;;33.93;45.04
41515;BME280;27247;48.020;16.720;2022-07-23T08:42:25;99727.84;;;34.00;43.88
41515;BME280;27247;48.020;16.720;2022-07-23T08:46:36;99731.00;;;34.19;45.08
41515;BME280;27247;48.020;16.720;2022-07-23T08:50:49;99733.69;;;34.07;43.65
41515;BME280;27247;48.020;16.720;2022-07-23T08:55:00;99727.28;;;34.15;43.64
41515;BME280;27247;48.020;16.720;2022-07-23T08:59:11;99722.22;;;33.79;41.55
41515;BME280;27247;48.020;16.720;2022-07-23T09:03:28;99728.25;;;33.81;43.66
41515;BME280;27247;48.020;16.720;2022-07-23T09:12:25;99732.47;;;34.17;42.13
41515;BME280;27247;48.020;16.720;2022-07-23T09:16:35;99730.13;;;34.27;42.29
41515;BME280;27247;48.020;16.720;2022-07-23T09:20:46;99723.59;;;34.32;42.58
41515;BME280;27247;48.020;16.720;2022-07-23T09:25:36;99718.44;;;34.51;42.99
41515;BME280;27247;48.020;16.720;2022-07-23T09:29:40;99722.28;;;34.80;42.01
41515;BME280;27247;48.020;16.720;2022-07-23T09:34:13;99724.81;;;34.94;41.04
41515;BME280;27247;48.020;16.720;2022-07-23T09:38:24;99713.53;;;35.11;41.18
41515;BME280;27247;48.020;16.720;2022-07-23T09:42:35;99711.03;;;35.30;42.46
41515;BME280;27247;48.020;16.720;2022-07-23T09:46:47;99710.47;;;35.58;40.02
41515;BME280;27247;48.020;16.720;2022-07-23T09:51:02;99697.84;;;35.72;40.20
41515;BME280;27247;48.020;16.720;2022-07-23T09:55:13;99693.19;;;35.64;40.27
41515;BME280;27247;48.020;16.720;2022-07-23T09:59:29;99686.94;;;35.79;39.87
41515;BME280;27247;48.020;16.720;2022-07-23T10:03:41;99691.72;;;35.91;38.92
41515;BME280;27247;48.020;16.720;2022-07-23T10:07:52;99688.47;;;36.01;39.88
41515;BME280;27247;48.020;16.720;2022-07-23T10:12:05;99685.34;;;36.03;38.91
41515;BME280;27247;48.020;16.720;2022-07-23T10:16:40;99690.66;;;36.20;39.35
41515;BME280;27247;48.020;16.720;2022-07-23T10:20:51;99685.09;;;36.44;38.99
41515;BME280;27247;48.020;16.720;2022-07-23T10:25:36;99683.22;;;36.49;39.42
41515;BME280;27247;48.020;16.720;2022-07-23T10:30:13;99676.44;;;36.62;39.82
41515;BME280;27247;48.020;16.720;2022-07-23T10:34:54;99665.34;;;36.90;39.19
41515;BME280;27247;48.020;16.720;2022-07-23T10:39:29;99670.06;;;37.17;38.97
41515;BME280;27247;48.020;16.720;2022-07-23T10:43:42;99675.25;;;37.31;38.52
41515;BME280;27247;48.020;16.720;2022-07-23T10:47:52;99668.03;;;37.30;38.03
41515;BME280;27247;48.020;16.720;2022-07-23T11:01:30;99647.53;;;38.01;37.55
41515;BME280;27247;48.020;16.720;2022-07-23T11:05:41;99639.66;;;37.72;38.50
41515;BME280;27247;48.020;16.720;2022-07-23T11:09:53;99629.47;;;37.48;37.76
41515;BME280;27247;48.020;16.720;2022-07-23T11:14:04;99637.22;;;37.54;36.51
41515;BME280;27247;48.020;16.720;2022-07-23T11:18:14;99637.66;;;37.56;37.41
41515;BME280;27247;48.020;16.720;2022-07-23T11:26:58;99634.94;;;37.91;37.82
41515;BME280;27247;48.020;16.720;2022-07-23T11:31:17;99629.97;;;38.00;38.21
41515;BME280;27247;48.020;16.720;2022-07-23T11:35:28;99621.09;;;37.32;38.83
41515;BME280;27247;48.020;16.720;2022-07-23T11:39:38;99620.59;;;36.98;38.03
41515;BME280;27247;48.020;16.720;2022-07-23T11:43:49;99624.16;;;36.83;39.94
41515;BME280;27247;48.020;16.720;2022-07-23T11:47:59;99633.94;;;36.77;40.17
41515;BME280;27247;48.020;16.720;2022-07-23T11:52:14;99632.59;;;36.59;40.62
41515;BME280;27247;48.020;16.720;2022-07-23T11:56:24;99613.63;;;36.49;41.01
41515;BME280;27247;48.020;16.720;2022-07-23T12:00:35;99633.72;;;36.18;40.57
41515;BME280;27247;48.020;16.720;2022-07-23T12:04:48;99627.16;;;35.86;40.65
41515;BME280;27247;48.020;16.720;2022-07-23T12:08:59;99622.06;;;35.75;40.20
41515;BME280;27247;48.020;16.720;2022-07-23T12:13:15;99616.97;;;35.53;40.71
41515;BME280;27247;48.020;16.720;2022-07-23T12:17:31;99617.88;;;35.45;40.75
41515;BME280;27247;48.020;16.720;2022-07-23T12:21:41;99621.63;;;35.16;42.02
41515;BME280;27247;48.020;16.720;2022-07-23T12:25:53;99641.50;;;34.73;42.66
41515;BME280;27247;48.020;16.720;2022-07-23T12:34:26;99642.19;;;34.70;43.95
41515;BME280;27247;48.020;16.720;2022-07-23T12:38:46;99647.34;;;34.59;44.26
41515;BME280;27247;48.020;16.720;2022-07-23T12:43:08;99650.13;;;34.30;44.98
41515;BME280;27247;48.020;16.720;2022-07-23T12:47:19;99659.06;;;34.14;46.02
41515;BME280;27247;48.020;16.720;2022-07-23T12:51:30;99660.34;;;34.17;46.79
41515;BME280;27247;48.020;16.720;2022-07-23T12:55:43;99662.75;;;33.98;46.22
41515;BME280;27247;48.020;16.720;2022-07-23T13:00:07;99667.13;;;33.69;45.90
41515;BME280;27247;48.020;16.720;2022-07-23T13:04:19;99665.44;;;33.47;46.63
41515;BME280;27247;48.020;16.720;2022-07-23T13:08:31;99667.28;;;33.35;47.10
41515;BME280;27247;48.020;16.720;2022-07-23T13:12:42;99677.44;;;32.87;48.78
41515;BME280;27247;48.020;16.720;2022-07-23T13:16:53;99692.88;;;32.28;50.12
41515;BME280;27247;48.020;16.720;2022-07-23T13:21:04;99701.78;;;31.77;51.06
41515;BME280;27247;48.020;16.720;2022-07-23T13:25:15;99710.78;;;31.60;51.09
41515;BME280;27247;48.020;16.720;2022-07-23T13:29:25;99711.66;;;31.16;52.06
41515;BME280;27247;48.020;16.720;2022-07-23T13:33:35;99712.88;;;30.65;54.30
41515;BME280;27247;48.020;16.720;2022-07-23T13:37:46;99738.41;;;30.70;54.49
41515;BME280;27247;48.020;16.720;2022-07-23T13:41:56;99729.88;;;30.17;56.39
41515;BME280;27247;48.020;16.720;2022-07-23T13:46:06;99726.31;;;30.30;56.40
41515;BME280;27247;48.020;16.720;2022-07-23T13:50:17;99727.63;;;30.33;54.94
41515;BME280;27247;48.020;16.720;2022-07-23T13:54:27;99718.88;;;30.67;55.18
41515;BME280;27247;48.020;16.720;2022-07-23T13:58:38;99713.47;;;31.42;53.89
41515;BME280;27247;48.020;16.720;2022-07-23T14:02:50;99706.94;;;32.18;50.89
41515;BME280;27247;48.020;16.720;2022-07-23T14:07:01;99697.94;;;32.69;49.14
41515;BME280;27247;48.020;16.720;2022-07-23T14:11:12;99689.06;;;33.27;48.05
41515;BME280;27247;48.020;16.720;2022-07-23T14:15:23;99682.09;;;33.85;46.45
41515;BME280;27247;48.020;16.720;2022-07-23T14:19:34;99674.47;;;34.33;45.45
41515;BME280;27247;48.020;16.720;2022-07-23T14:23:44;99663.38;;;34.33;43.16
41515;BME280;27247;48.020;16.720;2022-07-23T14:27:55;99657.66;;;34.38;43.47
41515;BME280;27247;48.020;16.720;2022-07-23T14:32:05;99652.16;;;34.50;43.14
41515;BME280;27247;48.020;16.720;2022-07-23T14:36:16;99646.59;;;34.50;42.89
41515;BME280;27247;48.020;16.720;2022-07-23T14:40:27;99649.78;;;34.61;43.19
41515;BME280;27247;48.020;16.720;2022-07-23T14:44:37;99642.72;;;34.63;43.30
41515;BME280;27247;48.020;16.720;2022-07-23T14:48:48;99645.56;;;34.75;43.09
41515;BME280;27247;48.020;16.720;2022-07-23T14:52:58;99641.78;;;34.59;43.37
41515;BME280;27247;48.020;16.720;2022-07-23T14:57:09;99643.75;;;34.58;42.78
41515;BME280;27247;48.020;16.720;2022-07-23T15:01:19;99646.59;;;34.50;42.04
41515;BME280;27247;48.020;16.720;2022-07-23T15:05:29;99636.50;;;34.66;42.28
41515;BME280;27247;48.020;16.720;2022-07-23T15:09:40;99645.16;;;34.65;40.38
41515;BME280;27247;48.020;16.720;2022-07-23T15:13:50;99639.09;;;34.50;40.55
41515;BME280;27247;48.020;16.720;2022-07-23T15:18:01;99646.81;;;34.45;40.89
41515;BME280;27247;48.020;16.720;2022-07-23T15:22:11;99662.94;;;34.22;40.86
41515;BME280;27247;48.020;16.720;2022-07-23T15:26:22;99644.16;;;33.98;41.02
41515;BME280;27247;48.020;16.720;2022-07-23T15:30:33;99647.19;;;33.76;41.77
41515;BME280;27247;48.020;16.720;2022-07-23T15:34:43;99644.41;;;33.84;41.55
41515;BME280;27247;48.020;16.720;2022-07-23T15:38:53;99650.84;;;33.68;39.48
41515;BME280;27247;48.020;16.720;2022-07-23T15:43:04;99651.56;;;33.47;38.30
41515;BME280;27247;48.020;16.720;2022-07-23T15:47:17;99647.50;;;33.27;39.54
41515;BME280;27247;48.020;16.720;2022-07-23T15:51:27;99644.41;;;33.29;40.16
41515;BME280;27247;48.020;16.720;2022-07-23T15:55:39;99651.94;;;33.37;40.92
41515;BME280;27247;48.020;16.720;2022-07-23T15:59:49;99645.88;;;33.44;41.09
41515;BME280;27247;48.020;16.720;2022-07-23T16:04:00;99639.53;;;33.43;41.33
41515;BME280;27247;48.020;16.720;2022-07-23T16:08:10;99639.38;;;33.40;42.32
41515;BME280;27247;48.020;16.720;2022-07-23T16:12:21;99632.69;;;33.41;43.36
41515;BME280;27247;48.020;16.720;2022-07-23T16:16:31;99632.06;;;33.18;43.25
41515;BME280;27247;48.020;16.720;2022-07-23T16:20:42;99621.50;;;33.11;43.51
41515;BME280;27247;48.020;16.720;2022-07-23T16:24:52;99621.69;;;32.97;44.40
41515;BME280;27247;48.020;16.720;2022-07-23T16:29:03;99619.44;;;32.91;44.65
41515;BME280;27247;48.020;16.720;2022-07-23T16:33:13;99623.38;;;32.81;44.11
41515;BME280;27247;48.020;16.720;2022-07-23T16:37:23;99616.53;;;32.70;44.86
41515;BME280;27247;48.020;16.720;2022-07-23T16:41:34;99622.88;;;32.62;45.12
41515;BME280;27247;48.020;16.720;2022-07-23T16:45:45;99616.06;;;32.51;45.18
41515;BME280;27247;48.020;16.720;2022-07-23T16:49:55;99614.91;;;32.43;45.80
41515;BME280;27247;48.020;16.720;2022-07-23T16:54:06;99608.25;;;32.44;46.00
41515;BME280;27247;48.020;16.720;2022-07-23T16:58:16;99608.75;;;32.29;46.14
41515;BME280;27247;48.020;16.720;2022-07-23T17:02:27;99604.97;;;32.25;46.00
41515;BME280;27247;48.020;16.720;2022-07-23T17:06:37;99609.31;;;32.17;45.85
41515;BME280;27247;48.020;16.720;2022-07-23T17:10:48;99616.16;;;32.11;45.94
41515;BME280;27247;48.020;16.720;2022-07-23T17:14:58;99614.50;;;32.01;46.26
41515;BME280;27247;48.020;16.720;2022-07-23T17:19:08;99617.75;;;31.95;46.50
41515;BME280;27247;48.020;16.720;2022-07-23T17:23:19;99616.94;;;31.86;46.47
41515;BME280;27247;48.020;16.720;2022-07-23T17:27:29;99625.63;;;31.62;47.09
41515;BME280;27247;48.020;16.720;2022-07-23T17:31:40;99634.34;;;31.47;47.19
41515;BME280;27247;48.020;16.720;2022-07-23T17:35:50;99620.84;;;31.45;47.34
41515;BME280;27247;48.020;16.720;2022-07-23T17:40:03;99636.13;;;31.42;47.61
41515;BME280;27247;48.020;16.720;2022-07-23T17:44:16;99628.75;;;31.29;47.51
41515;BME280;27247;48.020;16.720;2022-07-23T17:48:27;99627.47;;;31.13;47.85
41515;BME280;27247;48.020;16.720;2022-07-23T17:52:44;99639.59;;;31.03;47.70
41515;BME280;27247;48.020;16.720;2022-07-23T17:56:55;99644.56;;;30.93;47.45
41515;BME280;27247;48.020;16.720;2022-07-23T18:01:06;99659.81;;;30.68;48.21
41515;BME280;27247;48.020;16.720;2022-07-23T18:05:17;99660.47;;;30.51;48.04
41515;BME280;27247;48.020;16.720;2022-07-23T18:09:27;99668.41;;;30.30;48.46
41515;BME280;27247;48.020;16.720;2022-07-23T18:13:38;99672.91;;;30.12;49.00
41515;BME280;27247;48.020;16.720;2022-07-23T18:17:48;99679.34;;;30.08;49.22
41515;BME280;27247;48.020;16.720;2022-07-23T18:21:59;99679.75;;;30.01;49.70
41515;BME280;27247;48.020;16.720;2022-07-23T18:26:10;99679.94;;;29.91;50.33
41515;BME280;27247;48.020;16.720;2022-07-23T18:30:21;99684.03;;;29.80;50.27
41515;BME280;27247;48.020;16.720;2022-07-23T18:34:31;99685.03;;;29.70;50.96
41515;BME280;27247;48.020;16.720;2022-07-23T18:38:42;99695.16;;;29.61;51.44
41515;BME280;27247;48.020;16.720;2022-07-23T18:42:52;99689.00;;;29.50;51.54
41515;BME280;27247;48.020;16.720;2022-07-23T18:47:05;99696.41;;;29.36;52.11
41515;BME280;27247;48.020;16.720;2022-07-23T18:51:15;99695.78;;;29.26;52.65
41515;BME280;27247;48.020;16.720;2022-07-23T18:55:26;99709.72;;;29.15;52.56
41515;BME280;27247;48.020;16.720;2022-07-23T18:59:37;99698.72;;;29.15;53.04
41515;BME280;27247;48.020;16.720;2022-07-23T19:03:47;99707.31;;;29.09;52.89
41515;BME280;27247;48.020;16.720;2022-07-23T19:07:57;99713.34;;;29.11;52.97
41515;BME280;27247;48.020;16.720;2022-07-23T19:12:08;99715.53;;;29.14;53.29
41515;BME280;27247;48.020;16.720;2022-07-23T19:16:18;99709.25;;;29.08;53.28
41515;BME280;27247;48.020;16.720;2022-07-23T19:20:29;99716.47;;;29.04;53.19
41515;BME280;27247;48.020;16.720;2022-07-23T19:24:39;99714.34;;;29.01;53.66
41515;BME280;27247;48.020;16.720;2022-07-23T19:28:52;99723.50;;;28.97;53.83
41515;BME280;27247;48.020;16.720;2022-07-23T19:33:03;99723.91;;;29.04;53.92
41515;BME280;27247;48.020;16.720;2022-07-23T19:37:13;99728.16;;;28.96;54.23
41515;BME280;27247;48.020;16.720;2022-07-23T19:41:25;99733.25;;;28.89;54.43
41515;BME280;27247;48.020;16.720;2022-07-23T19:45:35;99741.56;;;28.84;54.90
41515;BME280;27247;48.020;16.720;2022-07-23T19:49:46;99736.88;;;28.84;54.97
41515;BME280;27247;48.020;16.720;2022-07-23T19:53:56;99751.06;;;28.73;55.44
41515;BME280;27247;48.020;16.720;2022-07-23T19:58:07;99752.56;;;28.65;55.57
41515;BME280;27247;48.020;16.720;2022-07-23T20:02:17;99763.31;;;28.61;55.87
41515;BME280;27247;48.020;16.720;2022-07-23T20:06:28;99767.78;;;28.57;55.68
41515;BME280;27247;48.020;16.720;2022-07-23T20:10:38;99761.59;;;28.47;56.22
41515;BME280;27247;48.020;16.720;2022-07-23T20:14:49;99764.00;;;28.53;56.02
41515;BME280;27247;48.020;16.720;2022-07-23T20:19:00;99768.97;;;28.51;55.87
41515;BME280;27247;48.020;16.720;2022-07-23T20:23:11;99765.25;;;28.42;56.23
41515;BME280;27247;48.020;16.720;2022-07-23T20:27:21;99781.22;;;28.40;56.96
41515;BME280;27247;48.020;16.720;2022-07-23T20:31:32;99775.03;;;28.29;57.15
41515;BME280;27247;48.020;16.720;2022-07-23T20:35:42;99787.53;;;28.17;57.21
41515;BME280;27247;48.020;16.720;2022-07-23T20:39:52;99793.03;;;28.17;56.54
41515;BME280;27247;48.020;16.720;2022-07-23T20:44:03;99826.59;;;28.14;56.75
41515;BME280;27247;48.020;16.720;2022-07-23T20:48:14;99844.75;;;28.10;56.41
41515;BME280;27247;48.020;16.720;2022-07-23T20:52:24;99847.81;;;28.03;56.91
41515;BME280;27247;48.020;16.720;2022-07-23T20:56:35;99846.59;;;27.90;57.06
41515;BME280;27247;48.020;16.720;2022-07-23T21:00:45;99863.59;;;27.92;56.96
41515;BME280;27247;48.020;16.720;2022-07-23T21:04:56;99882.91;;;27.82;57.17
41515;BME280;27247;48.020;16.720;2022-07-23T21:09:06;99877.72;;;27.81;58.01
41515;BME280;27247;48.020;16.720;2022-07-23T21:13:17;99891.53;;;27.71;57.50
41515;BME280;27247;48.020;16.720;2022-07-23T21:17:27;99887.72;;;27.66;56.89
41515;BME280;27247;48.020;16.720;2022-07-23T21:21:37;99894.03;;;27.67;56.30
41515;BME280;27247;48.020;16.720;2022-07-23T21:25:48;99901.75;;;27.65;56.41
41515;BME280;27247;48.020;16.720;2022-07-23T21:30:00;99902.06;;;27.53;56.26
41515;BME280;27247;48.020;16.720;2022-07-23T21:34:11;99899.03;;;27.55;56.03
41515;BME280;27247;48.020;16.720;2022-07-23T21:38:21;99903.72;;;27.54;55.70
41515;BME280;27247;48.020;16.720;2022-07-23T21:42:31;99908.41;;;27.49;56.15
41515;BME280;27247;48.020;16.720;2022-07-23T21:46:42;99915.31;;;27.46;56.28
41515;BME280;27247;48.020;16.720;2022-07-23T21:50:52;99914.81;;;27.39;56.73
41515;BME280;27247;48.020;16.720;2022-07-23T21:55:04;99933.81;;;27.25;57.07
41515;BME280;27247;48.020;16.720;2022-07-23T21:59:15;99935.75;;;27.25;56.96
41515;BME280;27247;48.020;16.720;2022-07-23T22:03:25;99937.47;;;27.11;57.26
41515;BME280;27247;48.020;16.720;2022-07-23T22:07:36;99941.59;;;27.03;57.56
41515;BME280;27247;48.020;16.720;2022-07-23T22:11:46;99940.22;;;26.95;58.27
41515;BME280;27247;48.020;16.720;2022-07-23T22:15:56;99963.84;;;26.91;59.50